Time;durP1;ratioP1;P1;durP2;ratioP2;P2;SDS_P1;SDS_P2;PMS_P1;PMS_P2;Temp;Humidity;BMP_temperature;BMP_pressure;BME280_temperature;BME280_humidity;BME280_pressure;Samples;Min_cycle;Max_cycle;Signal;HPM_P1;HPM_P2
2023/07/04 00:03:48;;;;;;;2.88;1.88;;;;;;;;;;10502335;28;20120;-79
2023/07/04 00:08:48;;;;;;;3.85;2.15;;;;;;;;;;10522036;28;20163;-81
2023/07/04 00:13:50;;;;;;;2.33;1.95;;;;;;;;;;10523794;28;20043;-79
2023/07/04 00:18:50;;;;;;;4.05;2.20;;;;;;;;;;10532270;28;20083;-80
2023/07/04 00:23:54;;;;;;;4.75;1.92;;;;;;;;;;10554272;28;20070;-81
2023/07/04 00:28:54;;;;;;;2.75;1.70;;;;;;;;;;10533673;28;20038;-80
2023/07/04 00:33:57;;;;;;;3.93;2.23;;;;;;;;;;10522407;28;20040;-81
2023/07/04 00:38:57;;;;;;;3.28;2.00;;;;;;;;;;10524759;28;20032;-79
2023/07/04 00:49:41;;;;;;;3.10;2.63;;;;;;;;;;10546338;28;20278;-83
2023/07/04 00:54:47;;;;;;;4.15;2.25;;;;;;;;;;10577948;28;20052;-83
2023/07/04 00:59:52;;;;;;;5.10;2.20;;;;;;;;;;10580910;28;20011;-83
2023/07/04 01:04:53;;;;;;;4.28;2.42;;;;;;;;;;10577104;28;20051;-83
2023/07/04 01:10:10;;;;;;;2.78;2.05;;;;;;;;;;10489829;28;20040;-83
2023/07/04 01:15:10;;;;;;;3.72;2.67;;;;;;;;;;10484054;28;20078;-84
2023/07/04 01:20:12;;;;;;;3.72;2.20;;;;;;;;;;10477709;28;20141;-82
2023/07/04 01:25:31;;;;;;;3.92;1.98;;;;;;;;;;10480156;28;20040;-82
2023/07/04 01:30:37;;;;;;;3.53;2.17;;;;;;;;;;10472399;28;20047;-83
2023/07/04 01:35:39;;;;;;;3.90;2.28;;;;;;;;;;10476632;28;20116;-81
2023/07/04 01:40:39;;;;;;;4.40;2.40;;;;;;;;;;10481477;28;20510;-84
2023/07/04 01:45:39;;;;;;;4.33;2.60;;;;;;;;;;10481872;28;20054;-82
2023/07/04 01:50:40;;;;;;;3.30;2.20;;;;;;;;;;10481196;28;20037;-81
2023/07/04 01:55:42;;;;;;;3.45;2.88;;;;;;;;;;10471198;28;20040;-81
2023/07/04 02:00:42;;;;;;;3.60;2.60;;;;;;;;;;10454868;28;20093;-82
2023/07/04 02:05:43;;;;;;;3.75;2.70;;;;;;;;;;10474712;28;20037;-80
2023/07/04 02:10:45;;;;;;;4.53;2.47;;;;;;;;;;10468140;28;20044;-81
2023/07/04 02:15:48;;;;;;;3.90;2.60;;;;;;;;;;10472839;28;20072;-82
2023/07/04 02:20:49;;;;;;;4.55;2.38;;;;;;;;;;10506808;28;20025;-82
2023/07/04 02:25:52;;;;;;;4.53;2.67;;;;;;;;;;10505183;28;20143;-82
2023/07/04 02:30:56;;;;;;;4.13;2.63;;;;;;;;;;10477955;28;20291;-82
2023/07/04 02:35:56;;;;;;;4.18;2.75;;;;;;;;;;10467130;28;20050;-81
2023/07/04 02:41:00;;;;;;;4.07;2.40;;;;;;;;;;10470904;28;20436;-80
2023/07/04 02:46:02;;;;;;;5.18;2.97;;;;;;;;;;10454240;28;20070;-82
2023/07/04 02:51:03;;;;;;;3.70;2.80;;;;;;;;;;10479835;28;20049;-82
2023/07/04 02:56:03;;;;;;;4.30;2.80;;;;;;;;;;10478869;28;20033;-82
2023/07/04 03:01:06;;;;;;;6.65;3.05;;;;;;;;;;10479616;28;20487;-82
2023/07/04 03:06:09;;;;;;;3.83;2.55;;;;;;;;;;10477472;28;20051;-83
2023/07/04 03:11:11;;;;;;;3.50;2.20;;;;;;;;;;10486242;28;20044;-80
2023/07/04 03:16:11;;;;;;;4.38;2.50;;;;;;;;;;10484513;28;20127;-80
2023/07/04 03:21:18;;;;;;;4.00;2.50;;;;;;;;;;10486891;28;20524;-80
2023/07/04 03:26:20;;;;;;;3.58;2.80;;;;;;;;;;10474930;28;20048;-80
2023/07/04 03:31:21;;;;;;;3.45;2.90;;;;;;;;;;10480036;28;20188;-80
2023/07/04 03:36:23;;;;;;;10.10;2.92;;;;;;;;;;10487863;28;20357;-81
2023/07/04 03:41:23;;;;;;;3.25;2.60;;;;;;;;;;10471922;28;20041;-81
2023/07/04 03:46:23;;;;;;;3.90;2.75;;;;;;;;;;10461463;28;20052;-81
2023/07/04 03:51:25;;;;;;;3.43;2.63;;;;;;;;;;10473291;28;20516;-82
2023/07/04 03:56:26;;;;;;;3.97;2.65;;;;;;;;;;10483905;28;20137;-80
2023/07/04 04:01:27;;;;;;;3.80;2.33;;;;;;;;;;10485734;28;20174;-80
2023/07/04 04:06:27;;;;;;;4.27;2.77;;;;;;;;;;10466866;28;20117;-79
2023/07/04 04:11:28;;;;;;;4.13;2.70;;;;;;;;;;10474179;28;20278;-78
2023/07/04 04:16:28;;;;;;;3.30;2.30;;;;;;;;;;10478868;28;20282;-79
2023/07/04 04:21:28;;;;;;;3.77;2.63;;;;;;;;;;10485768;28;20043;-78
2023/07/04 04:26:37;;;;;;;4.15;3.00;;;;;;;;;;10483162;28;20048;-77
2023/07/04 04:31:39;;;;;;;4.90;3.22;;;;;;;;;;10479914;28;20034;-78
2023/07/04 04:36:39;;;;;;;4.15;2.70;;;;;;;;;;10479423;28;20035;-78
2023/07/04 04:41:41;;;;;;;4.97;2.87;;;;;;;;;;10483724;28;20396;-78
2023/07/04 04:46:48;;;;;;;3.97;2.60;;;;;;;;;;10478296;28;20312;-78
2023/07/04 04:51:51;;;;;;;4.72;2.58;;;;;;;;;;10476426;28;20036;-78
2023/07/04 04:56:52;;;;;;;5.10;2.78;;;;;;;;;;10471353;28;20032;-80
2023/07/04 05:01:52;;;;;;;4.43;2.80;;;;;;;;;;10482335;28;20043;-79
2023/07/04 05:06:53;;;;;;;4.38;2.58;;;;;;;;;;10500994;28;20044;-81
2023/07/04 05:11:53;;;;;;;3.53;2.70;;;;;;;;;;10496595;28;20103;-81
2023/07/04 05:16:54;;;;;;;4.80;2.45;;;;;;;;;;10489892;28;20060;-81
2023/07/04 05:21:55;;;;;;;4.23;2.70;;;;;;;;;;10486720;28;20032;-81
2023/07/04 05:26:56;;;;;;;4.25;2.78;;;;;;;;;;10477495;28;20052;-76
2023/07/04 05:31:56;;;;;;;5.00;2.87;;;;;;;;;;10476987;28;20033;-75
2023/07/04 05:36:56;;;;;;;4.33;2.70;;;;;;;;;;10472041;28;20813;-74
2023/07/04 05:41:57;;;;;;;4.73;2.73;;;;;;;;;;10479125;28;20043;-74
2023/07/04 05:46:57;;;;;;;3.15;2.30;;;;;;;;;;10488450;28;20045;-74
2023/07/04 05:51:58;;;;;;;4.03;2.77;;;;;;;;;;10490529;28;20033;-76
2023/07/04 05:56:58;;;;;;;3.95;2.80;;;;;;;;;;10479433;28;20281;-75
2023/07/04 06:01:59;;;;;;;2.93;2.20;;;;;;;;;;10479034;28;20045;-76
2023/07/04 06:07:02;;;;;;;4.88;2.55;;;;;;;;;;10473841;28;20147;-75
2023/07/04 06:12:02;;;;;;;4.55;2.80;;;;;;;;;;10470578;28;20035;-77
2023/07/04 06:17:04;;;;;;;5.05;3.15;;;;;;;;;;10464619;28;20028;-76
2023/07/04 06:22:07;;;;;;;4.57;2.95;;;;;;;;;;10472857;28;20636;-74
2023/07/04 06:27:07;;;;;;;5.03;3.30;;;;;;;;;;10467392;28;20079;-76
2023/07/04 06:32:08;;;;;;;6.95;4.20;;;;;;;;;;10470420;28;20498;-75
2023/07/04 06:37:09;;;;;;;5.03;3.53;;;;;;;;;;10467894;28;20041;-75
2023/07/04 06:42:09;;;;;;;5.50;3.13;;;;;;;;;;10468856;28;20036;-75
2023/07/04 06:47:15;;;;;;;6.93;3.22;;;;;;;;;;10468169;28;20124;-76
2023/07/04 06:52:15;;;;;;;8.03;3.70;;;;;;;;;;10465138;28;20036;-76
2023/07/04 06:57:16;;;;;;;7.65;3.83;;;;;;;;;;10466903;28;20092;-75
2023/07/04 07:02:16;;;;;;;7.30;4.10;;;;;;;;;;10468711;28;20541;-75
2023/07/04 07:07:16;;;;;;;6.47;3.73;;;;;;;;;;10465243;28;20305;-74
2023/07/04 07:12:17;;;;;;;8.73;3.70;;;;;;;;;;10463679;28;20844;-75
2023/07/04 07:17:17;;;;;;;8.23;4.37;;;;;;;;;;10463607;28;20539;-76
2023/07/04 07:22:17;;;;;;;6.50;4.13;;;;;;;;;;10460138;28;20043;-74
2023/07/04 07:27:18;;;;;;;8.67;4.23;;;;;;;;;;10465472;28;20353;-76
2023/07/04 07:32:18;;;;;;;7.43;3.93;;;;;;;;;;10474764;28;20307;-77
2023/07/04 07:37:19;;;;;;;7.38;4.20;;;;;;;;;;10467267;28;20075;-76
2023/07/04 07:42:19;;;;;;;6.22;4.03;;;;;;;;;;10471675;28;20028;-77
2023/07/04 07:47:19;;;;;;;6.90;4.37;;;;;;;;;;10469806;28;20048;-75
2023/07/04 07:52:20;;;;;;;9.93;4.43;;;;;;;;;;10479081;28;20051;-75
2023/07/04 07:57:21;;;;;;;7.60;3.92;;;;;;;;;;10479855;28;20047;-76
2023/07/04 08:02:21;;;;;;;7.33;4.10;;;;;;;;;;10467998;28;20045;-75
2023/07/04 08:07:21;;;;;;;7.43;4.00;;;;;;;;;;10476437;28;20053;-77
2023/07/04 08:12:22;;;;;;;8.30;4.30;;;;;;;;;;10474607;28;20284;-75
2023/07/04 08:17:23;;;;;;;6.78;4.30;;;;;;;;;;10477578;28;20302;-76
2023/07/04 08:22:23;;;;;;;9.65;5.38;;;;;;;;;;10475328;28;20024;-74
2023/07/04 08:27:25;;;;;;;10.57;4.93;;;;;;;;;;10468324;28;20052;-75
2023/07/04 08:32:29;;;;;;;11.02;5.30;;;;;;;;;;10468496;28;20329;-74
2023/07/04 08:37:29;;;;;;;9.45;4.75;;;;;;;;;;10468407;28;20162;-75
2023/07/04 08:42:32;;;;;;;9.90;5.03;;;;;;;;;;10467758;28;20044;-76
2023/07/04 08:47:32;;;;;;;8.38;5.00;;;;;;;;;;10471109;28;20058;-76
2023/07/04 08:52:36;;;;;;;10.57;5.95;;;;;;;;;;10472080;28;20042;-75
2023/07/04 08:57:36;;;;;;;10.38;6.00;;;;;;;;;;10472282;28;20040;-75
2023/07/04 09:03:03;;;;;;;13.00;6.67;;;;;;;;;;10474480;28;20061;-75
2023/07/04 09:08:10;;;;;;;11.68;5.95;;;;;;;;;;10451307;28;20365;-75
2023/07/04 09:13:12;;;;;;;10.68;5.70;;;;;;;;;;10469615;28;20028;-75
2023/07/04 09:18:25;;;;;;;9.85;5.72;;;;;;;;;;10488051;28;20040;-76
2023/07/04 09:23:25;;;;;;;10.50;6.40;;;;;;;;;;10478980;28;20113;-75
2023/07/04 09:28:27;;;;;;;14.85;7.57;;;;;;;;;;10461497;28;20048;-78
2023/07/04 09:33:28;;;;;;;;;;;;;;;;;;10474371;28;20063;-79
2023/07/04 09:38:48;;;;;;;10.80;7.65;;;;;;;;;;10465669;28;20390;-80
2023/07/04 09:43:48;;;;;;;11.27;7.30;;;;;;;;;;10475749;28;20032;-78
2023/07/04 09:48:49;;;;;;;13.68;7.53;;;;;;;;;;10466478;28;20068;-78
2023/07/04 09:53:49;;;;;;;10.52;6.95;;;;;;;;;;10467268;28;20044;-78
2023/07/04 09:59:08;;;;;;;15.03;9.70;;;;;;;;;;10468008;28;20480;-78
2023/07/04 10:04:11;;;;;;;13.80;8.82;;;;;;;;;;10477281;28;20341;-78
2023/07/04 10:09:15;;;;;;;;;;;;;;;;;;10463049;28;20650;-78
2023/07/04 10:14:16;;;;;;;12.35;8.63;;;;;;;;;;10478144;28;19970;-81
2023/07/04 10:19:19;;;;;;;13.90;10.00;;;;;;;;;;10462580;28;20036;-80
2023/07/04 10:24:20;;;;;;;13.98;10.23;;;;;;;;;;10461808;28;20136;-77
2023/07/04 10:29:33;;;;;;;13.63;9.07;;;;;;;;;;10474766;28;20033;-81
2023/07/04 10:34:34;;;;;;;9.23;7.60;;;;;;;;;;10479302;28;20052;-80
2023/07/04 10:39:37;;;;;;;11.85;8.43;;;;;;;;;;10468061;28;20060;-76
2023/07/04 10:44:39;;;;;;;15.10;9.50;;;;;;;;;;10477873;28;20048;-77
2023/07/04 10:49:43;;;;;;;13.15;6.95;;;;;;;;;;10473658;28;20029;-78
2023/07/04 10:54:43;;;;;;;11.43;7.38;;;;;;;;;;10464468;28;20041;-80
2023/07/04 10:59:44;;;;;;;11.40;7.33;;;;;;;;;;10476846;28;20460;-80
2023/07/04 11:04:45;;;;;;;11.40;7.50;;;;;;;;;;10484556;28;20028;-77
2023/07/04 11:09:47;;;;;;;9.20;7.10;;;;;;;;;;10469698;28;20859;-77
2023/07/04 11:14:47;;;;;;;9.90;7.10;;;;;;;;;;10462857;28;20086;-79
2023/07/04 11:20:06;;;;;;;9.85;6.10;;;;;;;;;;10470911;28;20317;-80
2023/07/04 11:25:25;;;;;;;11.75;7.22;;;;;;;;;;10472444;28;20609;-79
2023/07/04 11:30:32;;;;;;;10.95;7.57;;;;;;;;;;10490559;28;20033;-80
2023/07/04 11:35:33;;;;;;;12.15;7.97;;;;;;;;;;10491458;28;20042;-77
2023/07/04 11:40:45;;;;;;;9.63;6.72;;;;;;;;;;10481401;28;20063;-78
2023/07/04 11:45:45;;;;;;;10.80;6.68;;;;;;;;;;10472966;28;20096;-77
2023/07/04 12:05:50;;;;;;;9.38;7.22;;;;;;;;;;10531977;22;20427;-79
2023/07/04 12:10:50;;;;;;;8.25;6.32;;;;;;;;;;10493977;28;20099;-80
2023/07/04 12:15:54;;;;;;;9.43;6.80;;;;;;;;;;10508553;28;20044;-78
2023/07/04 12:20:58;;;;;;;9.15;6.63;;;;;;;;;;10499720;28;20558;-79
2023/07/04 12:26:02;;;;;;;7.63;6.18;;;;;;;;;;10487703;28;20036;-77
2023/07/04 12:31:06;;;;;;;8.75;5.82;;;;;;;;;;10507012;28;20028;-76
2023/07/04 12:36:09;;;;;;;8.48;6.05;;;;;;;;;;10511802;28;20043;-75
2023/07/04 12:41:10;;;;;;;8.20;5.68;;;;;;;;;;10505673;28;20040;-76
2023/07/04 12:46:12;;;;;;;13.90;9.70;;;;;;;;;;10511610;28;20028;-77
2023/07/04 12:51:17;;;;;;;10.00;7.53;;;;;;;;;;10501908;28;20043;-76
2023/07/04 12:56:18;;;;;;;12.65;8.68;;;;;;;;;;10518585;28;20054;-76
2023/07/04 13:01:23;;;;;;;10.03;8.40;;;;;;;;;;10505746;28;20036;-78
2023/07/04 13:06:24;;;;;;;13.38;10.80;;;;;;;;;;10458112;28;20070;-77
2023/07/04 13:11:25;;;;;;;15.60;13.40;;;;;;;;;;10484341;28;20515;-78
2023/07/04 13:16:28;;;;;;;15.50;11.63;;;;;;;;;;10479886;28;20037;-77
2023/07/04 13:21:30;;;;;;;12.43;9.45;;;;;;;;;;10460170;28;20110;-79
2023/07/04 13:26:30;;;;;;;;;;;;;;;;;;10478487;28;20032;-77
2023/07/04 13:31:31;;;;;;;10.23;8.20;;;;;;;;;;10482877;28;20604;-78
2023/07/04 13:36:37;;;;;;;7.73;5.83;;;;;;;;;;10463273;28;20047;-76
2023/07/04 13:41:38;;;;;;;9.00;6.57;;;;;;;;;;10487673;28;20051;-78
2023/07/04 13:46:38;;;;;;;9.60;7.23;;;;;;;;;;10517286;28;20072;-79
2023/07/04 13:51:39;;;;;;;8.27;6.13;;;;;;;;;;10491157;28;20123;-80
2023/07/04 13:56:39;;;;;;;7.00;5.80;;;;;;;;;;10479440;28;20047;-80
2023/07/04 14:01:40;;;;;;;7.57;5.87;;;;;;;;;;10479073;28;20040;-80
2023/07/04 14:06:40;;;;;;;7.90;5.67;;;;;;;;;;10483893;28;20033;-81
2023/07/04 14:11:40;;;;;;;7.57;5.40;;;;;;;;;;10480175;28;20088;-81
2023/07/04 14:16:41;;;;;;;8.63;6.23;;;;;;;;;;10482459;28;20041;-76
2023/07/04 14:21:41;;;;;;;10.60;7.17;;;;;;;;;;10477798;28;20037;-74
2023/07/04 14:26:41;;;;;;;9.45;6.30;;;;;;;;;;10472005;28;20057;-75
2023/07/04 14:31:42;;;;;;;7.93;6.10;;;;;;;;;;10481492;28;20616;-76
2023/07/04 14:36:42;;;;;;;9.27;6.13;;;;;;;;;;10449680;28;20506;-76
2023/07/04 14:41:42;;;;;;;10.07;6.17;;;;;;;;;;10477377;28;20656;-75
2023/07/04 14:46:43;;;;;;;9.10;6.17;;;;;;;;;;10463920;28;20047;-78
2023/07/04 14:51:43;;;;;;;9.90;5.50;;;;;;;;;;10483639;28;20040;-75
2023/07/04 14:56:44;;;;;;;6.27;5.00;;;;;;;;;;10458337;28;20088;-77
2023/07/04 15:01:44;;;;;;;8.57;5.70;;;;;;;;;;10457475;28;20496;-77
2023/07/04 15:06:45;;;;;;;6.40;5.00;;;;;;;;;;10476467;28;20047;-76
2023/07/04 15:11:45;;;;;;;6.10;4.83;;;;;;;;;;10442471;28;20097;-77
2023/07/04 15:16:45;;;;;;;6.63;5.07;;;;;;;;;;10471527;28;20044;-76
2023/07/04 15:21:46;;;;;;;8.23;4.93;;;;;;;;;;10465219;28;20044;-76
2023/07/04 15:26:46;;;;;;;5.27;4.07;;;;;;;;;;10464935;28;20040;-77
2023/07/04 15:31:47;;;;;;;5.83;4.30;;;;;;;;;;10473016;28;20053;-76
2023/07/04 15:37:06;;;;;;;6.00;4.10;;;;;;;;;;10474865;28;20743;-74
2023/07/04 15:42:07;;;;;;;7.32;4.60;;;;;;;;;;10473380;28;20024;-76
2023/07/04 15:47:07;;;;;;;5.17;3.93;;;;;;;;;;10462955;28;20037;-76
2023/07/04 15:52:08;;;;;;;4.90;3.90;;;;;;;;;;10470616;28;20054;-76
2023/07/04 15:57:10;;;;;;;8.27;5.93;;;;;;;;;;10472398;28;20351;-74
2023/07/04 16:02:10;;;;;;;6.30;4.10;;;;;;;;;;10470670;28;20037;-74
2023/07/04 16:07:11;;;;;;;4.87;4.03;;;;;;;;;;10433305;28;20167;-76
2023/07/04 16:12:11;;;;;;;5.53;4.83;;;;;;;;;;10433331;28;20056;-77
2023/07/04 16:17:12;;;;;;;7.70;5.47;;;;;;;;;;10427155;28;20527;-78
2023/07/04 16:22:12;;;;;;;5.97;4.37;;;;;;;;;;10430346;28;20496;-79
2023/07/04 16:27:12;;;;;;;4.90;3.90;;;;;;;;;;10405171;28;20045;-77
2023/07/04 16:32:13;;;;;;;5.80;3.70;;;;;;;;;;10412800;28;20055;-75
2023/07/04 16:37:13;;;;;;;6.67;4.00;;;;;;;;;;10435423;28;20033;-76
2023/07/04 16:42:15;;;;;;;6.77;4.60;;;;;;;;;;10442692;28;20036;-75
2023/07/04 16:47:18;;;;;;;6.00;3.92;;;;;;;;;;10455215;28;20040;-75
2023/07/04 16:52:18;;;;;;;4.35;3.67;;;;;;;;;;10447512;28;20048;-75
2023/07/04 16:57:19;;;;;;;5.60;3.80;;;;;;;;;;10448244;28;20037;-75
2023/07/04 17:02:19;;;;;;;7.00;4.33;;;;;;;;;;10436880;28;20096;-75
2023/07/04 17:07:19;;;;;;;6.73;4.47;;;;;;;;;;10487601;28;20566;-75
2023/07/04 17:12:20;;;;;;;4.83;4.20;;;;;;;;;;10481618;28;20037;-76
2023/07/04 17:17:20;;;;;;;6.88;5.18;;;;;;;;;;10479764;28;20279;-76
2023/07/04 17:22:21;;;;;;;6.93;4.00;;;;;;;;;;10477679;28;20040;-78
2023/07/04 17:27:21;;;;;;;5.55;4.15;;;;;;;;;;10503073;28;20035;-76
2023/07/04 17:32:21;;;;;;;5.83;4.50;;;;;;;;;;10493873;28;20509;-79
2023/07/04 17:37:22;;;;;;;5.57;3.83;;;;;;;;;;10476794;28;20072;-77
2023/07/04 17:42:23;;;;;;;6.57;4.03;;;;;;;;;;10474608;28;20063;-77
2023/07/04 17:47:23;;;;;;;6.47;3.70;;;;;;;;;;10476310;28;20302;-78
2023/07/04 17:52:26;;;;;;;5.45;3.70;;;;;;;;;;10462225;28;20103;-75
2023/07/04 17:57:26;;;;;;;4.80;3.65;;;;;;;;;;10471078;28;20041;-77
2023/07/04 18:02:26;;;;;;;4.57;3.47;;;;;;;;;;10459724;28;20072;-79
2023/07/04 18:07:27;;;;;;;5.45;3.90;;;;;;;;;;10474493;28;20617;-77
2023/07/04 18:12:27;;;;;;;4.65;3.88;;;;;;;;;;10456142;28;20534;-77
2023/07/04 18:17:29;;;;;;;5.97;3.88;;;;;;;;;;10469092;28;20044;-77
2023/07/04 18:22:30;;;;;;;6.22;3.47;;;;;;;;;;10455115;28;20042;-76
2023/07/04 18:27:30;;;;;;;8.40;5.50;;;;;;;;;;10451736;28;20050;-75
2023/07/04 18:32:31;;;;;;;4.77;3.83;;;;;;;;;;10483383;28;20589;-75
2023/07/04 18:37:31;;;;;;;5.40;4.15;;;;;;;;;;10478588;28;20290;-77
2023/07/04 18:42:31;;;;;;;4.38;3.95;;;;;;;;;;10481688;28;20040;-76
2023/07/04 18:47:32;;;;;;;5.90;4.27;;;;;;;;;;10483946;28;21210;-77
2023/07/04 18:52:32;;;;;;;6.38;4.55;;;;;;;;;;10477276;28;20067;-77
2023/07/04 18:57:32;;;;;;;6.50;4.23;;;;;;;;;;10483448;28;20042;-78
2023/07/04 19:02:34;;;;;;;7.55;6.57;;;;;;;;;;10464709;28;20158;-82
2023/07/04 19:07:35;;;;;;;8.93;5.72;;;;;;;;;;10439048;28;20037;-81
2023/07/04 19:12:35;;;;;;;6.47;4.50;;;;;;;;;;10442322;28;20040;-81
2023/07/04 19:17:35;;;;;;;9.80;5.57;;;;;;;;;;10441309;28;20155;-81
2023/07/04 19:22:36;;;;;;;6.57;5.23;;;;;;;;;;10427714;28;21170;-81
2023/07/04 19:27:37;;;;;;;6.88;4.90;;;;;;;;;;10439361;28;20029;-80
2023/07/04 19:32:38;;;;;;;7.72;5.18;;;;;;;;;;10446055;28;20605;-78
2023/07/04 19:37:40;;;;;;;7.93;6.15;;;;;;;;;;10441010;28;20087;-77
2023/07/04 19:42:40;;;;;;;8.70;6.60;;;;;;;;;;10451046;28;20123;-77
2023/07/04 19:47:40;;;;;;;10.27;7.77;;;;;;;;;;10447380;28;20044;-80
2023/07/04 19:52:41;;;;;;;11.17;7.80;;;;;;;;;;10469116;28;20299;-81
2023/07/04 19:57:42;;;;;;;8.43;6.27;;;;;;;;;;10422059;28;20295;-78
2023/07/04 20:02:43;;;;;;;8.00;6.07;;;;;;;;;;10437608;28;20298;-81
2023/07/04 20:07:45;;;;;;;6.53;5.55;;;;;;;;;;10422441;28;20037;-85
2023/07/04 20:12:46;;;;;;;6.25;5.25;;;;;;;;;;10434552;28;20556;-79
2023/07/04 20:17:46;;;;;;;6.60;5.80;;;;;;;;;;10436232;28;20042;-80
2023/07/04 20:22:48;;;;;;;8.00;5.33;;;;;;;;;;10440630;28;20033;-82
2023/07/04 20:27:49;;;;;;;8.70;6.22;;;;;;;;;;10426729;28;20140;-82
2023/07/04 20:32:49;;;;;;;8.18;5.32;;;;;;;;;;10426296;28;20053;-77
2023/07/04 20:37:50;;;;;;;13.73;10.07;;;;;;;;;;10442968;28;20029;-81
2023/07/04 20:42:50;;;;;;;7.37;5.90;;;;;;;;;;10422962;28;20298;-79
2023/07/04 20:47:53;;;;;;;8.90;5.53;;;;;;;;;;10446058;28;20134;-79
2023/07/04 20:52:53;;;;;;;5.90;4.82;;;;;;;;;;10443934;28;20299;-80
2023/07/04 20:57:53;;;;;;;7.18;5.32;;;;;;;;;;10438462;28;20072;-79
2023/07/04 21:02:54;;;;;;;9.07;5.40;;;;;;;;;;10410848;28;20056;-80
2023/07/04 21:07:56;;;;;;;6.32;4.50;;;;;;;;;;10423553;28;20033;-82
2023/07/04 21:12:57;;;;;;;8.32;5.15;;;;;;;;;;10434315;28;20143;-79
2023/07/04 21:17:58;;;;;;;6.97;5.00;;;;;;;;;;10433101;28;20032;-81
2023/07/04 21:22:58;;;;;;;6.43;4.80;;;;;;;;;;10441670;28;20555;-80
2023/07/04 21:28:00;;;;;;;7.60;5.05;;;;;;;;;;10449644;28;20287;-81
2023/07/04 21:33:01;;;;;;;6.63;5.07;;;;;;;;;;10432918;28;20147;-81
2023/07/04 21:38:01;;;;;;;6.10;4.30;;;;;;;;;;10450008;28;20098;-80
2023/07/04 21:43:02;;;;;;;6.20;4.87;;;;;;;;;;10446278;28;20788;-76
2023/07/04 21:48:03;;;;;;;6.38;5.10;;;;;;;;;;10443736;28;20036;-78
2023/07/04 21:53:03;;;;;;;6.50;4.90;;;;;;;;;;10443868;28;20314;-80
2023/07/04 21:58:04;;;;;;;7.22;5.00;;;;;;;;;;10419614;28;20504;-80
2023/07/04 22:03:05;;;;;;;7.53;5.13;;;;;;;;;;10441053;28;20044;-80
2023/07/04 22:08:05;;;;;;;7.55;5.00;;;;;;;;;;10447408;28;20594;-78
2023/07/04 22:13:06;;;;;;;5.80;4.63;;;;;;;;;;10455408;28;20039;-79
2023/07/04 22:18:09;;;;;;;8.43;5.00;;;;;;;;;;10473796;28;20347;-81
2023/07/04 22:23:10;;;;;;;7.22;5.15;;;;;;;;;;10483366;28;20036;-77
2023/07/04 22:28:11;;;;;;;8.07;4.95;;;;;;;;;;10478602;28;20036;-78
2023/07/04 22:33:12;;;;;;;7.15;5.32;;;;;;;;;;10487821;28;20326;-81
2023/07/04 22:38:13;;;;;;;5.87;4.63;;;;;;;;;;10484010;28;20080;-77
2023/07/04 22:43:15;;;;;;;8.00;5.05;;;;;;;;;;10480866;28;20063;-76
2023/07/04 22:48:16;;;;;;;9.88;5.10;;;;;;;;;;10477144;28;20384;-77
2023/07/04 22:53:16;;;;;;;6.97;4.95;;;;;;;;;;10464293;28;20052;-77
2023/07/04 22:58:17;;;;;;;7.80;5.87;;;;;;;;;;10487687;28;20051;-79
2023/07/04 23:03:20;;;;;;;8.57;5.63;;;;;;;;;;10523167;28;20044;-83
2023/07/04 23:08:23;;;;;;;10.05;5.70;;;;;;;;;;10477060;28;20426;-83
2023/07/04 23:13:26;;;;;;;8.80;5.32;;;;;;;;;;10478005;28;20380;-83
2023/07/04 23:18:26;;;;;;;6.97;5.38;;;;;;;;;;10475925;28;20392;-80
2023/07/04 23:23:28;;;;;;;6.73;4.80;;;;;;;;;;10477034;28;20032;-81
2023/07/04 23:28:28;;;;;;;8.23;4.88;;;;;;;;;;10497104;28;20028;-84
2023/07/04 23:33:33;;;;;;;9.05;5.70;;;;;;;;;;10499354;28;20056;-81
2023/07/04 23:38:34;;;;;;;6.28;5.28;;;;;;;;;;10481945;28;20037;-82
2023/07/04 23:43:37;;;;;;;7.17;5.50;;;;;;;;;;10479251;28;20045;-83
2023/07/04 23:48:39;;;;;;;7.82;5.35;;;;;;;;;;10482042;28;20129;-83
2023/07/04 23:53:40;;;;;;;8.23;5.50;;;;;;;;;;10460402;28;20448;-82
2023/07/04 23:58:41;;;;;;;7.03;5.15;;;;;;;;;;10491964;28;20090;-83
